Terminal Aerodrome Forecast
Issued by NWS

Home | Current Version | Previous Version | Text Only | Print | Product List | Glossary On
Versions: 1 2 3 4 5 6 7 8 9 10 11 12 13 14 15 16 17 18 19 20 21
000
FTUS41 KCAR 271120
TAFFVE
TAF
KFVE 271120Z 2712/2812 VRB03KT P6SM SCT250
     FM271600 19007KT 5SM -SHRA VCTS BKN045CB
     FM272300 21007KT 6SM -SHRA BKN035
     FM280200 21006KT P6SM BKN050
     FM280600 22007KT P6SM SCT008 BKN015=

USA.gov is the U.S. government's official web portal to all federal, state and local government web resources and services.